createdAt,value
2022-10-22T00:02:09.657Z,20.95
2022-10-22T00:04:37.573Z,27.40
2022-10-22T00:07:05.727Z,20.75
2022-10-22T00:09:33.583Z,24.80
2022-10-22T00:12:01.566Z,21.88
2022-10-22T00:14:29.436Z,21.83
2022-10-22T00:17:01.011Z,24.77
2022-10-22T00:19:28.893Z,23.42
2022-10-22T00:21:58.277Z,22.75
2022-10-22T00:24:26.476Z,16.95
2022-10-22T00:26:54.319Z,20.90
2022-10-22T00:29:22.588Z,19.05
2022-10-22T00:31:51.449Z,26.02
2022-10-22T00:34:22.365Z,17.55
2022-10-22T00:36:51.756Z,17.77
2022-10-22T00:39:22.049Z,16.75
2022-10-22T00:41:51.628Z,21.63
2022-10-22T00:44:56.659Z,15.23
2022-10-22T00:47:26.462Z,19.35
2022-10-22T00:49:57.349Z,13.20
2022-10-22T00:52:26.010Z,15.20
2022-10-22T00:54:54.162Z,17.25
2022-10-22T00:57:23.752Z,21.48
2022-10-22T00:59:52.225Z,16.55
2022-10-22T01:02:20.104Z,14.50
2022-10-22T01:04:49.087Z,19.10
2022-10-22T01:07:21.250Z,16.30
2022-10-22T01:10:01.846Z,16.92
2022-10-22T01:12:41.130Z,14.70
2022-10-22T01:15:17.991Z,15.15
2022-10-22T01:17:52.972Z,17.30
2022-10-22T01:20:41.109Z,20.55
2022-10-22T01:23:27.508Z,19.73
2022-10-22T01:25:59.691Z,22.17
2022-10-22T01:28:51.957Z,17.80
2022-10-22T01:31:25.389Z,17.17
2022-10-22T01:33:55.791Z,18.23
2022-10-22T01:36:23.877Z,19.95
2022-10-22T01:38:54.671Z,20.50
2022-10-22T01:41:22.863Z,14.15
2022-10-22T01:43:51.144Z,16.05
2022-10-22T01:46:22.809Z,16.77
2022-10-22T01:49:04.970Z,15.15
2022-10-22T01:51:49.155Z,20.90
2022-10-22T01:54:28.596Z,19.30
2022-10-22T01:57:07.916Z,15.63
2022-10-22T01:59:45.751Z,18.67
2022-10-22T02:02:34.031Z,16.30
2022-10-22T02:05:07.293Z,19.50
2022-10-22T02:07:41.067Z,15.80
2022-10-22T02:10:11.851Z,17.35
2022-10-22T02:12:41.482Z,17.13
2022-10-22T02:15:12.198Z,16.15
2022-10-22T02:17:44.219Z,18.20
2022-10-22T02:20:17.833Z,16.50
2022-10-22T02:22:46.538Z,14.25
2022-10-22T02:25:14.682Z,15.63
2022-10-22T02:27:46.653Z,12.40
2022-10-22T02:30:17.573Z,14.15
2022-10-22T02:32:52.960Z,13.75
2022-10-22T02:35:25.038Z,13.30
2022-10-22T02:37:54.955Z,13.10
2022-10-22T02:40:23.583Z,17.10
2022-10-22T02:42:52.109Z,16.00
2022-10-22T02:45:21.598Z,19.50
2022-10-22T02:47:51.092Z,13.90
2022-10-22T02:50:19.252Z,12.45
2022-10-22T02:52:47.103Z,19.73
2022-10-22T02:55:15.026Z,15.02
2022-10-22T02:57:43.428Z,17.17
2022-10-22T03:00:13.596Z,16.20
2022-10-22T03:02:43.263Z,12.38
2022-10-22T03:05:12.535Z,14.85
2022-10-22T03:07:40.784Z,14.48
2022-10-22T03:10:12.593Z,15.98
2022-10-22T03:12:40.490Z,13.40
2022-10-22T03:15:09.535Z,11.15
2022-10-22T03:17:37.699Z,12.93
2022-10-22T03:20:06.595Z,9.85
2022-10-22T03:22:37.375Z,10.68
2022-10-22T03:25:09.174Z,12.20
2022-10-22T03:27:39.630Z,10.00
2022-10-22T03:30:11.976Z,9.80
2022-10-22T03:32:40.680Z,7.32
2022-10-22T03:35:09.765Z,4.25
2022-10-22T03:37:40.634Z,7.07
2022-10-22T03:40:11.571Z,3.38
2022-10-22T03:42:39.734Z,7.10
2022-10-22T03:45:09.480Z,7.97
2022-10-22T03:47:38.283Z,7.57
2022-10-22T03:50:07.529Z,6.22
2022-10-22T03:52:39.814Z,5.38
2022-10-22T03:55:08.498Z,4.72
2022-10-22T03:57:36.712Z,8.27
2022-10-22T04:00:06.672Z,7.70
2022-10-22T04:02:39.420Z,4.45
2022-10-22T04:05:08.663Z,3.83
2022-10-22T04:07:38.154Z,8.98
2022-10-22T04:10:07.308Z,4.15
2022-10-22T04:12:36.199Z,3.67
2022-10-22T04:15:04.280Z,2.53
2022-10-22T04:17:35.575Z,4.10
2022-10-22T04:20:06.804Z,5.75
2022-10-22T04:22:35.279Z,3.30
2022-10-22T04:25:05.649Z,4.07
2022-10-22T04:27:34.373Z,5.97
2022-10-22T04:30:02.418Z,3.35
2022-10-22T04:32:30.682Z,3.85
2022-10-22T04:34:58.637Z,5.45
2022-10-22T04:37:26.545Z,3.78
2022-10-22T04:39:54.479Z,3.85
2022-10-22T04:42:25.026Z,2.70
2022-10-22T04:44:52.880Z,5.60
2022-10-22T04:47:20.715Z,4.32
2022-10-22T04:49:48.594Z,3.13
2022-10-22T04:52:16.489Z,3.03
2022-10-22T04:54:44.301Z,4.05
2022-10-22T04:57:12.223Z,5.10
2022-10-22T04:59:41.800Z,3.53
2022-10-22T05:02:09.708Z,6.70
2022-10-22T05:04:37.530Z,3.00
2022-10-22T05:07:05.412Z,5.45
2022-10-22T05:09:33.283Z,7.88
2022-10-22T05:12:01.197Z,5.47
2022-10-22T05:14:29.425Z,5.45
2022-10-22T05:16:58.686Z,7.32
2022-10-22T05:19:29.395Z,5.85
2022-10-22T05:21:59.273Z,4.57
2022-10-22T05:24:28.314Z,3.95
2022-10-22T05:26:57.737Z,6.88
2022-10-22T05:29:26.700Z,4.57
2022-10-22T05:31:54.626Z,6.70
2022-10-22T05:34:23.940Z,5.93
2022-10-22T05:36:51.826Z,5.40
2022-10-22T05:39:19.741Z,4.45
2022-10-22T05:41:47.667Z,11.05
2022-10-22T05:44:15.635Z,8.70
2022-10-22T05:46:44.085Z,5.68
2022-10-22T05:49:15.058Z,5.88
2022-10-22T05:51:44.374Z,5.50
2022-10-22T05:54:18.281Z,7.50
2022-10-22T05:56:46.303Z,3.67
2022-10-22T05:59:14.141Z,6.85
2022-10-22T06:01:42.323Z,7.35
2022-10-22T06:04:12.944Z,4.68
2022-10-22T06:06:44.121Z,8.43
2022-10-22T06:09:17.498Z,5.30
2022-10-22T06:11:46.154Z,4.40
2022-10-22T06:14:14.992Z,9.07
2022-10-22T06:16:43.324Z,6.65
2022-10-22T06:19:16.725Z,4.50
2022-10-22T06:21:46.397Z,6.07
2022-10-22T06:24:18.026Z,6.53
2022-10-22T06:26:46.742Z,8.02
2022-10-22T06:29:15.603Z,7.90
2022-10-22T06:31:43.824Z,8.75
2022-10-22T06:34:15.400Z,8.98
2022-10-22T06:36:45.943Z,11.10
2022-10-22T06:39:18.103Z,6.40
2022-10-22T06:41:47.055Z,6.97
2022-10-22T06:44:17.302Z,13.25
2022-10-22T06:46:48.091Z,6.50
2022-10-22T06:49:17.396Z,9.38
2022-10-22T06:51:46.280Z,4.38
2022-10-22T06:54:17.097Z,8.45
2022-10-22T06:56:45.572Z,6.65
2022-10-22T06:59:14.259Z,14.07
2022-10-22T07:01:44.430Z,5.90
2022-10-22T07:04:14.373Z,4.57
2022-10-22T07:06:46.745Z,7.65
2022-10-22T07:11:47.239Z,5.85
2022-10-22T07:14:15.879Z,6.35
2022-10-22T07:16:51.082Z,8.13
2022-10-22T07:19:20.092Z,5.38
2022-10-22T07:21:51.315Z,4.63
2022-10-22T07:24:21.487Z,6.85
2022-10-22T07:26:53.619Z,2.45
2022-10-22T07:29:23.476Z,7.97
2022-10-22T07:31:52.311Z,2.47
2022-10-22T07:34:22.563Z,5.15
2022-10-22T07:36:51.657Z,3.08
2022-10-22T07:39:29.146Z,3.42
2022-10-22T07:41:59.680Z,5.55
2022-10-22T07:44:28.993Z,5.15
2022-10-22T07:46:59.073Z,2.28
2022-10-22T07:49:27.709Z,7.53
2022-10-22T07:51:58.458Z,3.92
2022-10-22T07:54:35.409Z,2.47
2022-10-22T07:57:19.150Z,3.33
2022-10-22T07:59:48.108Z,4.13
2022-10-22T08:02:19.273Z,5.97
2022-10-22T08:04:48.774Z,6.35
2022-10-22T08:07:19.371Z,2.92
2022-10-22T08:09:49.791Z,6.13
2022-10-22T08:12:18.767Z,3.30
2022-10-22T08:14:48.394Z,2.35
2022-10-22T08:17:20.685Z,5.78
2022-10-22T08:19:49.287Z,7.30
2022-10-22T08:22:18.096Z,1.95
2022-10-22T08:24:46.765Z,2.90
2022-10-22T08:27:18.875Z,3.47
2022-10-22T08:29:48.311Z,2.95
2022-10-22T08:32:18.477Z,3.35
2022-10-22T08:34:47.801Z,3.47
2022-10-22T08:37:18.482Z,3.42
2022-10-22T08:39:48.935Z,7.85
2022-10-22T08:43:07.259Z,1.65
2022-10-22T08:45:41.964Z,2.80
2022-10-22T08:48:25.800Z,1.33
2022-10-22T08:51:00.171Z,6.18
2022-10-22T08:53:43.293Z,2.47
2022-10-22T08:56:19.104Z,1.20
2022-10-22T08:58:58.736Z,2.92
2022-10-22T09:01:35.590Z,6.25
2022-10-22T09:04:13.289Z,4.72
2022-10-22T09:06:47.529Z,4.03
2022-10-22T09:09:22.939Z,13.85
2022-10-22T09:11:54.087Z,4.68
2022-10-22T09:14:27.866Z,5.28
2022-10-22T09:17:14.946Z,1.10
2022-10-22T09:19:56.548Z,2.08
2022-10-22T09:25:20.902Z,1.30
2022-10-22T09:27:54.341Z,1.38
2022-10-22T09:30:28.761Z,3.47
2022-10-22T09:33:05.519Z,3.15
2022-10-22T09:35:48.516Z,1.85
2022-10-22T09:38:20.827Z,1.75
2022-10-22T09:40:53.637Z,1.83
2022-10-22T09:43:23.515Z,3.92
2022-10-22T09:45:58.583Z,1.77
2022-10-22T09:48:32.307Z,3.83
2022-10-22T09:51:08.564Z,2.40
2022-10-22T09:53:43.300Z,17.25
2022-10-22T09:56:24.931Z,2.70
2022-10-22T09:58:52.957Z,5.75
2022-10-22T10:01:27.749Z,2.03
2022-10-22T10:03:55.865Z,2.72
2022-10-22T10:06:28.204Z,3.50
2022-10-22T10:08:59.606Z,1.50
2022-10-22T10:11:36.994Z,4.60
2022-10-22T10:14:16.615Z,2.13
2022-10-22T10:16:59.149Z,7.70
2022-10-22T10:20:04.557Z,4.85
2022-10-22T10:22:48.698Z,1.48
2022-10-22T10:25:41.508Z,4.38
2022-10-22T10:28:38.171Z,4.85
2022-10-22T10:31:24.149Z,1.70
2022-10-22T10:34:05.807Z,2.17
2022-10-22T10:36:41.538Z,1.30
2022-10-22T10:39:20.284Z,2.05
2022-10-22T10:42:00.852Z,3.35
2022-10-22T10:44:45.643Z,3.65
2022-10-22T10:47:25.987Z,2.38
2022-10-22T10:50:04.669Z,1.38
2022-10-22T10:52:43.404Z,6.80
2022-10-22T10:55:24.037Z,4.47
2022-10-22T10:58:09.124Z,2.75
2022-10-22T11:00:47.196Z,4.32
2022-10-22T11:03:50.240Z,3.90
2022-10-22T11:06:25.376Z,2.10
2022-10-22T11:09:00.050Z,3.85
2022-10-22T11:11:38.291Z,1.02
2022-10-22T11:14:15.592Z,1.10
2022-10-22T11:16:49.060Z,2.58
2022-10-22T11:19:22.833Z,1.52
2022-10-22T11:22:08.115Z,3.03
2022-10-22T11:24:44.997Z,3.08
2022-10-22T11:27:24.151Z,2.83
2022-10-22T11:30:01.272Z,2.15
2022-10-22T11:32:30.515Z,5.13
2022-10-22T11:35:02.297Z,2.15
2022-10-22T11:37:35.195Z,1.25
2022-10-22T11:40:08.506Z,2.15
2022-10-22T11:42:39.341Z,1.60
2022-10-22T11:45:28.654Z,3.40
2022-10-22T11:48:07.054Z,2.95
2022-10-22T11:50:53.052Z,2.88
2022-10-22T11:53:32.039Z,1.48
2022-10-22T11:56:22.217Z,1.20
2022-10-22T11:58:53.741Z,2.58
2022-10-22T12:01:25.912Z,3.25
2022-10-22T12:04:15.815Z,2.97
2022-10-22T12:07:09.168Z,3.00
2022-10-22T12:09:42.974Z,3.72
2022-10-22T12:12:15.703Z,3.85
2022-10-22T12:14:55.475Z,1.58
2022-10-22T12:17:24.731Z,1.60
2022-10-22T12:20:02.009Z,3.42
2022-10-22T12:22:32.788Z,1.15
2022-10-22T12:25:03.323Z,4.82
2022-10-22T12:27:36.835Z,1.42
2022-10-22T12:30:19.934Z,3.72
2022-10-22T12:32:48.001Z,3.30
2022-10-22T12:35:19.406Z,2.20
2022-10-22T12:37:52.164Z,2.45
2022-10-22T12:40:25.629Z,3.65
2022-10-22T12:42:58.847Z,1.88
2022-10-22T12:45:30.688Z,1.73
2022-10-22T12:48:02.033Z,1.65
2022-10-22T12:50:39.555Z,1.95
2022-10-22T12:53:16.388Z,3.75
2022-10-22T12:56:00.053Z,1.70
2022-10-22T12:58:31.473Z,1.92
2022-10-22T13:01:02.473Z,2.13
2022-10-22T13:03:38.637Z,1.75
2022-10-22T13:06:29.371Z,3.00
2022-10-22T13:09:10.952Z,3.83
2022-10-22T13:11:43.914Z,2.47
2022-10-22T13:14:23.718Z,1.42
2022-10-22T13:17:15.420Z,3.67
2022-10-22T13:19:53.367Z,4.65
2022-10-22T13:22:55.028Z,3.67
2022-10-22T13:25:27.706Z,4.90
2022-10-22T13:28:02.071Z,2.45
2022-10-22T13:30:33.287Z,4.35
2022-10-22T13:33:03.555Z,2.47
2022-10-22T13:35:39.331Z,3.28
2022-10-22T13:38:20.038Z,6.72
2022-10-22T13:40:48.861Z,3.80
2022-10-22T13:43:20.156Z,2.22
2022-10-22T13:45:52.463Z,1.70
2022-10-22T13:48:22.860Z,3.40
2022-10-22T13:50:50.934Z,2.92
2022-10-22T13:53:22.446Z,1.90
2022-10-22T13:55:51.501Z,2.45
2022-10-22T13:58:24.839Z,1.58
2022-10-22T14:00:56.030Z,1.75
2022-10-22T14:03:28.084Z,3.28
2022-10-22T14:05:56.859Z,3.20
2022-10-22T14:08:27.318Z,4.05
2022-10-22T14:10:56.354Z,3.22
2022-10-22T14:13:26.967Z,9.07
2022-10-22T14:15:56.117Z,4.78
2022-10-22T14:18:28.715Z,6.05
2022-10-22T14:21:00.185Z,3.15
2022-10-22T14:23:31.046Z,4.18
2022-10-22T14:26:00.552Z,2.47
2022-10-22T14:28:34.197Z,6.55
2022-10-22T14:31:11.186Z,4.10
2022-10-22T14:33:41.931Z,1.80
2022-10-22T14:36:16.677Z,5.75
2022-10-22T14:38:52.539Z,4.20
2022-10-22T14:41:24.654Z,4.35
2022-10-22T14:43:58.382Z,5.18
2022-10-22T14:46:27.276Z,5.28
2022-10-22T14:48:56.077Z,4.50
2022-10-22T14:51:24.917Z,8.73
2022-10-22T14:53:53.536Z,2.70
2022-10-22T14:56:22.769Z,4.47
2022-10-22T14:58:51.768Z,2.72
2022-10-22T15:01:21.958Z,6.47
2022-10-22T15:03:50.447Z,1.75
2022-10-22T15:06:19.159Z,4.95
2022-10-22T15:08:47.803Z,7.85
2022-10-22T15:11:16.515Z,3.40
2022-10-22T15:13:45.249Z,3.50
2022-10-22T15:16:16.335Z,3.90
2022-10-22T15:18:46.765Z,2.58
2022-10-22T15:21:17.509Z,3.17
2022-10-22T15:23:45.911Z,4.07
2022-10-22T15:26:15.495Z,3.35
2022-10-22T15:28:44.392Z,4.63
2022-10-22T15:31:15.787Z,4.72
2022-10-22T15:33:46.569Z,4.07
2022-10-22T15:36:18.205Z,2.58
2022-10-22T15:38:46.530Z,7.78
2022-10-22T15:41:15.075Z,4.68
2022-10-22T15:43:42.956Z,3.50
2022-10-22T15:46:13.933Z,4.18
2022-10-22T15:48:42.051Z,4.90
2022-10-22T15:51:16.481Z,7.22
2022-10-22T15:53:44.406Z,5.45
2022-10-22T15:56:12.879Z,4.57
2022-10-22T15:58:40.737Z,6.38
2022-10-22T16:01:10.378Z,10.00
2022-10-22T16:03:39.026Z,4.10
2022-10-22T16:06:09.285Z,5.40
2022-10-22T16:08:39.488Z,7.78
2022-10-22T16:11:07.742Z,5.25
2022-10-22T16:13:37.109Z,6.28
2022-10-22T16:16:07.376Z,5.97
2022-10-22T16:18:35.647Z,4.30
2022-10-22T16:21:03.752Z,5.97
2022-10-22T16:23:31.711Z,6.15
2022-10-22T16:26:03.801Z,7.20
2022-10-22T16:28:31.656Z,4.47
2022-10-22T16:31:05.921Z,6.35
2022-10-22T16:33:41.393Z,12.45
2022-10-22T16:36:13.007Z,7.30
2022-10-22T16:38:40.899Z,8.70
2022-10-22T16:41:13.270Z,6.32
2022-10-22T16:43:41.704Z,9.18
2022-10-22T16:46:10.379Z,8.45
2022-10-22T16:48:40.605Z,12.02
2022-10-22T16:51:10.573Z,10.55
2022-10-22T16:53:38.533Z,16.13
2022-10-22T16:56:11.797Z,6.93
2022-10-22T16:58:40.322Z,4.65
2022-10-22T17:01:09.005Z,7.72
2022-10-22T17:03:37.238Z,8.55
2022-10-22T17:06:06.370Z,6.68
2022-10-22T17:08:36.469Z,7.55
2022-10-22T17:11:08.099Z,7.90
2022-10-22T17:13:38.104Z,6.97
2022-10-22T17:16:08.029Z,5.85
2022-10-22T17:18:37.739Z,7.82
2022-10-22T17:21:06.533Z,11.73
2022-10-22T17:23:34.445Z,7.53
2022-10-22T17:26:03.748Z,8.73
2022-10-22T17:28:31.623Z,12.82
2022-10-22T17:31:09.661Z,8.07
2022-10-22T17:33:37.919Z,18.55
2022-10-22T17:36:10.925Z,13.25
2022-10-22T17:38:38.953Z,11.27
2022-10-22T17:41:08.709Z,9.05
2022-10-22T17:43:39.015Z,17.08
2022-10-22T17:46:10.802Z,15.73
2022-10-22T17:48:38.882Z,16.08
2022-10-22T17:51:08.151Z,12.65
2022-10-22T17:53:36.170Z,13.45
2022-10-22T17:56:07.509Z,14.52
2022-10-22T17:58:35.491Z,20.27
2022-10-22T18:01:03.746Z,18.38
2022-10-22T18:03:33.417Z,17.08
2022-10-22T18:06:07.242Z,16.67
2022-10-22T18:08:35.205Z,10.18
2022-10-22T18:11:07.445Z,13.20
2022-10-22T18:13:35.570Z,12.05
2022-10-22T18:16:03.850Z,9.77
2022-10-22T18:18:33.368Z,9.93
2022-10-22T18:21:01.630Z,11.77
2022-10-22T18:23:29.571Z,11.68
2022-10-22T18:25:57.435Z,8.75
2022-10-22T18:28:25.359Z,15.02
2022-10-22T18:30:53.209Z,10.65
2022-10-22T18:33:24.046Z,10.85
2022-10-22T18:35:53.700Z,23.58
2022-10-22T18:38:22.433Z,16.50
2022-10-22T18:40:50.995Z,16.75
2022-10-22T18:43:18.967Z,14.85
2022-10-22T18:45:48.337Z,17.52
2022-10-22T18:48:18.817Z,22.40
2022-10-22T18:50:48.093Z,17.27
2022-10-22T18:53:17.598Z,16.00
2022-10-22T18:55:45.771Z,15.75
2022-10-22T18:58:13.586Z,12.43
2022-10-22T19:00:41.514Z,16.95
2022-10-22T19:03:09.660Z,17.75
2022-10-22T19:05:45.609Z,9.77
2022-10-22T19:08:13.707Z,26.73
2022-10-22T19:10:42.926Z,23.98
2022-10-22T19:13:10.954Z,15.75
2022-10-22T19:15:38.803Z,14.18
2022-10-22T19:18:06.834Z,16.90
2022-10-22T19:20:36.084Z,23.45
2022-10-22T19:23:04.077Z,15.85
2022-10-22T19:25:31.983Z,21.13
2022-10-22T19:28:01.508Z,14.85
2022-10-22T19:30:29.557Z,21.60
2022-10-22T19:32:57.518Z,23.40
2022-10-22T19:35:25.423Z,24.00
2022-10-22T19:37:53.308Z,17.10
2022-10-22T19:42:57.003Z,22.17
2022-10-22T19:45:26.292Z,19.88
2022-10-22T19:47:54.137Z,19.13
2022-10-22T19:50:22.101Z,18.63
2022-10-22T19:52:51.235Z,20.08
2022-10-22T19:55:19.395Z,17.35
2022-10-22T19:57:47.263Z,24.02
2022-10-22T20:00:15.944Z,18.60
2022-10-22T20:02:45.160Z,17.92
2022-10-22T20:05:13.439Z,15.30
2022-10-22T20:07:41.738Z,31.13
2022-10-22T20:10:12.090Z,15.02
2022-10-22T20:12:39.993Z,24.75
2022-10-22T20:15:09.170Z,18.15
2022-10-22T20:17:37.036Z,22.00
2022-10-22T20:20:07.321Z,16.73
2022-10-22T20:22:35.196Z,22.27
2022-10-22T20:25:03.156Z,21.70
2022-10-22T20:27:31.027Z,21.02
2022-10-22T20:29:58.913Z,27.50
2022-10-22T20:32:28.027Z,24.38
2022-10-22T20:34:55.967Z,19.23
2022-10-22T20:37:25.279Z,29.38
2022-10-22T20:39:53.171Z,25.73
2022-10-22T20:42:21.039Z,22.58
2022-10-22T20:44:48.971Z,12.20
2022-10-22T20:47:17.153Z,18.48
2022-10-22T20:49:45.478Z,17.58
2022-10-22T20:52:13.407Z,22.65
2022-10-22T20:54:44.209Z,18.17
2022-10-22T20:57:13.328Z,22.63
2022-10-22T20:59:41.322Z,19.58
2022-10-22T21:02:11.475Z,24.02
2022-10-22T21:04:41.559Z,23.60
2022-10-22T21:07:11.995Z,21.95
2022-10-22T21:09:39.843Z,22.35
2022-10-22T21:12:09.196Z,22.27
2022-10-22T21:14:37.053Z,23.00
2022-10-22T21:17:05.286Z,20.60
2022-10-22T21:19:33.824Z,26.60
2022-10-22T21:22:01.767Z,16.55
2022-10-22T21:24:29.788Z,15.48
2022-10-22T21:26:57.671Z,23.15
2022-10-22T21:29:26.879Z,22.20
2022-10-22T21:31:54.979Z,27.00
2022-10-22T21:34:23.009Z,24.92
2022-10-22T21:36:51.235Z,20.73
2022-10-22T21:39:19.231Z,18.08
2022-10-22T21:41:47.457Z,21.75
2022-10-22T21:44:15.893Z,25.55
2022-10-22T21:46:45.535Z,18.00
2022-10-22T21:49:14.551Z,17.85
2022-10-22T21:51:45.026Z,19.33
2022-10-22T21:54:13.758Z,18.65
2022-10-22T21:56:43.389Z,16.77
2022-10-22T21:59:11.816Z,14.65
2022-10-22T22:01:40.580Z,16.58
2022-10-22T22:04:10.541Z,18.88
2022-10-22T22:06:39.261Z,22.27
2022-10-22T22:09:08.101Z,18.38
2022-10-22T22:11:36.931Z,22.80
2022-10-22T22:14:05.469Z,17.23
2022-10-22T22:16:35.803Z,19.60
2022-10-22T22:19:07.333Z,22.17
2022-10-22T22:21:39.431Z,17.17
2022-10-22T22:24:09.357Z,23.42
2022-10-22T22:26:38.013Z,22.92
2022-10-22T22:29:06.630Z,18.25
2022-10-22T22:31:37.573Z,21.67
2022-10-22T22:34:07.856Z,23.85
2022-10-22T22:36:40.125Z,27.88
2022-10-22T22:39:10.297Z,22.92
2022-10-22T22:41:38.790Z,27.05
2022-10-22T22:44:07.616Z,20.83
2022-10-22T22:46:36.214Z,23.92
2022-10-22T22:49:04.853Z,23.90
2022-10-22T22:51:33.480Z,24.67
2022-10-22T22:54:03.197Z,15.18
2022-10-22T22:56:32.602Z,20.42
2022-10-22T22:59:00.462Z,15.90
2022-10-22T23:01:30.214Z,19.17
2022-10-22T23:04:00.318Z,19.30
2022-10-22T23:06:29.961Z,20.30
2022-10-22T23:08:58.679Z,16.67
2022-10-22T23:11:28.971Z,19.45
2022-10-22T23:13:59.546Z,27.52
2022-10-22T23:16:29.301Z,22.27
2022-10-22T23:18:58.305Z,23.45
2022-10-22T23:21:28.117Z,27.40
2022-10-22T23:23:57.658Z,20.10
2022-10-22T23:26:29.547Z,27.88
2022-10-22T23:29:01.604Z,21.92
2022-10-22T23:31:29.467Z,18.52
2022-10-22T23:33:57.411Z,17.77
2022-10-22T23:36:25.304Z,30.55
2022-10-22T23:38:53.253Z,28.50
2022-10-22T23:41:21.163Z,28.80
2022-10-22T23:43:51.711Z,27.38
2022-10-22T23:46:19.600Z,33.22
2022-10-22T23:48:47.485Z,25.33
2022-10-22T23:51:17.182Z,26.13
2022-10-22T23:53:45.958Z,18.02
2022-10-22T23:56:17.199Z,23.98
2022-10-22T23:58:45.798Z,25.48
